sensor_id;sensor_type;location;lat;lon;timestamp;P1;durP1;ratioP1;P2;durP2;ratioP2
23119;SDS011;11729;50.836;4.330;2023-02-28T00:01:27;13.20;;;11.80;;
23119;SDS011;11729;50.836;4.330;2023-02-28T00:03:53;14.27;;;11.60;;
23119;SDS011;11729;50.836;4.330;2023-02-28T00:06:20;15.50;;;12.02;;
23119;SDS011;11729;50.836;4.330;2023-02-28T00:08:45;12.63;;;11.13;;
23119;SDS011;11729;50.836;4.330;2023-02-28T00:11:12;16.77;;;11.63;;
23119;SDS011;11729;50.836;4.330;2023-02-28T00:13:40;13.93;;;11.95;;
23119;SDS011;11729;50.836;4.330;2023-02-28T00:16:09;14.52;;;11.27;;
23119;SDS011;11729;50.836;4.330;2023-02-28T00:21:03;15.18;;;11.10;;
23119;SDS011;11729;50.836;4.330;2023-02-28T00:23:30;15.50;;;11.32;;
23119;SDS011;11729;50.836;4.330;2023-02-28T00:25:55;12.45;;;10.88;;
23119;SDS011;11729;50.836;4.330;2023-02-28T00:28:22;13.20;;;11.60;;
23119;SDS011;11729;50.836;4.330;2023-02-28T00:30:48;12.20;;;10.98;;
23119;SDS011;11729;50.836;4.330;2023-02-28T00:33:14;16.08;;;11.85;;
23119;SDS011;11729;50.836;4.330;2023-02-28T00:35:40;13.05;;;11.68;;
23119;SDS011;11729;50.836;4.330;2023-02-28T00:38:05;17.63;;;12.00;;
23119;SDS011;11729;50.836;4.330;2023-02-28T00:40:31;14.00;;;11.40;;
23119;SDS011;11729;50.836;4.330;2023-02-28T00:42:57;15.30;;;12.10;;
23119;SDS011;11729;50.836;4.330;2023-02-28T00:45:22;12.63;;;11.52;;
23119;SDS011;11729;50.836;4.330;2023-02-28T00:47:48;15.30;;;12.18;;
23119;SDS011;11729;50.836;4.330;2023-02-28T00:50:18;16.80;;;11.77;;
23119;SDS011;11729;50.836;4.330;2023-02-28T00:52:45;14.02;;;11.60;;
23119;SDS011;11729;50.836;4.330;2023-02-28T00:55:11;13.85;;;11.55;;
23119;SDS011;11729;50.836;4.330;2023-02-28T00:57:36;12.85;;;11.55;;
23119;SDS011;11729;50.836;4.330;2023-02-28T01:00:02;14.40;;;12.00;;
23119;SDS011;11729;50.836;4.330;2023-02-28T01:02:28;13.35;;;11.88;;
23119;SDS011;11729;50.836;4.330;2023-02-28T01:04:54;16.20;;;12.63;;
23119;SDS011;11729;50.836;4.330;2023-02-28T01:07:21;15.02;;;12.32;;
23119;SDS011;11729;50.836;4.330;2023-02-28T01:09:47;14.52;;;11.82;;
23119;SDS011;11729;50.836;4.330;2023-02-28T01:12:13;14.55;;;11.82;;
23119;SDS011;11729;50.836;4.330;2023-02-28T01:14:38;14.60;;;10.80;;
23119;SDS011;11729;50.836;4.330;2023-02-28T01:17:04;15.38;;;11.63;;
23119;SDS011;11729;50.836;4.330;2023-02-28T01:19:29;14.82;;;12.10;;
23119;SDS011;11729;50.836;4.330;2023-02-28T01:21:55;17.58;;;12.30;;
23119;SDS011;11729;50.836;4.330;2023-02-28T01:24:20;13.65;;;12.15;;
23119;SDS011;11729;50.836;4.330;2023-02-28T01:26:46;12.82;;;11.50;;
23119;SDS011;11729;50.836;4.330;2023-02-28T01:29:12;14.48;;;11.95;;
23119;SDS011;11729;50.836;4.330;2023-02-28T01:31:37;14.05;;;12.05;;
23119;SDS011;11729;50.836;4.330;2023-02-28T01:34:03;13.60;;;12.05;;
23119;SDS011;11729;50.836;4.330;2023-02-28T01:36:29;14.65;;;12.05;;
23119;SDS011;11729;50.836;4.330;2023-02-28T01:38:55;15.82;;;12.20;;
23119;SDS011;11729;50.836;4.330;2023-02-28T01:41:26;15.48;;;13.55;;
23119;SDS011;11729;50.836;4.330;2023-02-28T01:46:22;13.40;;;12.05;;
23119;SDS011;11729;50.836;4.330;2023-02-28T01:48:50;14.48;;;12.63;;
23119;SDS011;11729;50.836;4.330;2023-02-28T01:51:32;14.27;;;12.75;;
23119;SDS011;11729;50.836;4.330;2023-02-28T01:54:12;15.70;;;12.73;;
23119;SDS011;11729;50.836;4.330;2023-02-28T01:56:46;16.75;;;12.48;;
23119;SDS011;11729;50.836;4.330;2023-02-28T01:59:20;16.20;;;13.02;;
23119;SDS011;11729;50.836;4.330;2023-02-28T02:01:50;16.23;;;12.60;;
23119;SDS011;11729;50.836;4.330;2023-02-28T02:04:16;15.60;;;12.68;;
23119;SDS011;11729;50.836;4.330;2023-02-28T02:06:43;13.65;;;12.35;;
23119;SDS011;11729;50.836;4.330;2023-02-28T02:09:11;13.65;;;12.30;;
23119;SDS011;11729;50.836;4.330;2023-02-28T02:11:37;19.27;;;13.73;;
23119;SDS011;11729;50.836;4.330;2023-02-28T02:14:31;15.65;;;13.40;;
23119;SDS011;11729;50.836;4.330;2023-02-28T02:16:56;15.18;;;13.55;;
23119;SDS011;11729;50.836;4.330;2023-02-28T02:28:34;15.23;;;13.07;;
23119;SDS011;11729;50.836;4.330;2023-02-28T02:30:46;15.68;;;13.38;;
23119;SDS011;11729;50.836;4.330;2023-02-28T02:41:23;15.60;;;14.10;;
23119;SDS011;11729;50.836;4.330;2023-02-28T02:46:44;15.20;;;13.60;;
23119;SDS011;11729;50.836;4.330;2023-02-28T02:49:21;17.08;;;14.43;;
23119;SDS011;11729;50.836;4.330;2023-02-28T02:51:51;22.20;;;14.48;;
23119;SDS011;11729;50.836;4.330;2023-02-28T02:54:24;19.55;;;14.23;;
23119;SDS011;11729;50.836;4.330;2023-02-28T02:56:54;17.83;;;14.82;;
23119;SDS011;11729;50.836;4.330;2023-02-28T02:59:23;18.92;;;15.45;;
23119;SDS011;11729;50.836;4.330;2023-02-28T03:01:53;23.75;;;14.38;;
23119;SDS011;11729;50.836;4.330;2023-02-28T03:04:22;15.18;;;13.68;;
23119;SDS011;11729;50.836;4.330;2023-02-28T03:06:50;16.70;;;14.60;;
23119;SDS011;11729;50.836;4.330;2023-02-28T03:09:20;16.35;;;14.50;;
23119;SDS011;11729;50.836;4.330;2023-02-28T03:11:46;18.77;;;14.88;;
23119;SDS011;11729;50.836;4.330;2023-02-28T03:14:17;18.52;;;14.48;;
23119;SDS011;11729;50.836;4.330;2023-02-28T03:24:41;21.80;;;14.88;;
23119;SDS011;11729;50.836;4.330;2023-02-28T03:29:46;18.90;;;14.75;;
23119;SDS011;11729;50.836;4.330;2023-02-28T03:32:25;16.60;;;14.70;;
23119;SDS011;11729;50.836;4.330;2023-02-28T03:35:02;18.08;;;15.43;;
23119;SDS011;11729;50.836;4.330;2023-02-28T03:37:35;18.10;;;15.57;;
23119;SDS011;11729;50.836;4.330;2023-02-28T03:40:08;19.15;;;15.45;;
23119;SDS011;11729;50.836;4.330;2023-02-28T03:42:39;18.13;;;14.98;;
23119;SDS011;11729;50.836;4.330;2023-02-28T03:45:27;20.23;;;16.02;;
23119;SDS011;11729;50.836;4.330;2023-02-28T03:47:57;21.83;;;16.70;;
23119;SDS011;11729;50.836;4.330;2023-02-28T03:50:38;18.48;;;15.23;;
23119;SDS011;11729;50.836;4.330;2023-02-28T03:53:12;17.95;;;16.10;;
23119;SDS011;11729;50.836;4.330;2023-02-28T03:55:43;18.58;;;15.55;;
23119;SDS011;11729;50.836;4.330;2023-02-28T03:58:20;20.85;;;16.77;;
23119;SDS011;11729;50.836;4.330;2023-02-28T04:00:52;22.40;;;16.42;;
23119;SDS011;11729;50.836;4.330;2023-02-28T04:03:34;17.33;;;15.52;;
23119;SDS011;11729;50.836;4.330;2023-02-28T04:06:00;25.10;;;16.55;;
23119;SDS011;11729;50.836;4.330;2023-02-28T04:08:27;19.00;;;16.42;;
23119;SDS011;11729;50.836;4.330;2023-02-28T04:10:56;20.60;;;16.58;;
23119;SDS011;11729;50.836;4.330;2023-02-28T04:13:29;23.13;;;16.15;;
23119;SDS011;11729;50.836;4.330;2023-02-28T04:15:54;24.05;;;17.60;;
23119;SDS011;11729;50.836;4.330;2023-02-28T04:18:20;19.05;;;16.70;;
23119;SDS011;11729;50.836;4.330;2023-02-28T04:20:45;19.33;;;16.40;;
23119;SDS011;11729;50.836;4.330;2023-02-28T04:23:11;20.15;;;16.95;;
23119;SDS011;11729;50.836;4.330;2023-02-28T04:25:38;21.00;;;16.02;;
23119;SDS011;11729;50.836;4.330;2023-02-28T04:28:05;26.73;;;16.45;;
23119;SDS011;11729;50.836;4.330;2023-02-28T04:30:31;23.08;;;16.13;;
23119;SDS011;11729;50.836;4.330;2023-02-28T04:32:57;20.58;;;16.77;;
23119;SDS011;11729;50.836;4.330;2023-02-28T04:35:23;21.65;;;16.67;;
23119;SDS011;11729;50.836;4.330;2023-02-28T04:37:49;19.60;;;17.50;;
23119;SDS011;11729;50.836;4.330;2023-02-28T04:40:14;20.65;;;16.67;;
23119;SDS011;11729;50.836;4.330;2023-02-28T04:42:40;22.63;;;16.98;;
23119;SDS011;11729;50.836;4.330;2023-02-28T04:45:06;19.38;;;16.05;;
23119;SDS011;11729;50.836;4.330;2023-02-28T04:47:35;21.40;;;16.48;;
23119;SDS011;11729;50.836;4.330;2023-02-28T04:50:01;22.45;;;15.70;;
23119;SDS011;11729;50.836;4.330;2023-02-28T04:52:27;20.95;;;16.33;;
23119;SDS011;11729;50.836;4.330;2023-02-28T04:54:52;24.02;;;16.95;;
23119;SDS011;11729;50.836;4.330;2023-02-28T04:57:18;19.67;;;16.40;;
23119;SDS011;11729;50.836;4.330;2023-02-28T04:59:43;23.50;;;16.85;;
23119;SDS011;11729;50.836;4.330;2023-02-28T05:02:09;19.42;;;16.77;;
23119;SDS011;11729;50.836;4.330;2023-02-28T05:04:35;21.65;;;16.63;;
23119;SDS011;11729;50.836;4.330;2023-02-28T05:07:01;23.73;;;17.33;;
23119;SDS011;11729;50.836;4.330;2023-02-28T05:09:28;23.52;;;17.38;;
23119;SDS011;11729;50.836;4.330;2023-02-28T05:11:54;19.17;;;16.80;;
23119;SDS011;11729;50.836;4.330;2023-02-28T05:14:22;21.80;;;16.73;;
23119;SDS011;11729;50.836;4.330;2023-02-28T05:16:48;18.02;;;16.20;;
23119;SDS011;11729;50.836;4.330;2023-02-28T05:19:14;18.17;;;16.35;;
23119;SDS011;11729;50.836;4.330;2023-02-28T05:21:41;23.92;;;17.73;;
23119;SDS011;11729;50.836;4.330;2023-02-28T05:24:14;22.08;;;16.35;;
23119;SDS011;11729;50.836;4.330;2023-02-28T05:26:40;23.05;;;16.20;;
23119;SDS011;11729;50.836;4.330;2023-02-28T05:29:07;21.98;;;15.43;;
23119;SDS011;11729;50.836;4.330;2023-02-28T05:31:34;21.27;;;16.00;;
23119;SDS011;11729;50.836;4.330;2023-02-28T05:34:00;20.17;;;16.42;;
23119;SDS011;11729;50.836;4.330;2023-02-28T05:36:26;24.88;;;16.05;;
23119;SDS011;11729;50.836;4.330;2023-02-28T05:38:52;19.15;;;16.45;;
23119;SDS011;11729;50.836;4.330;2023-02-28T05:41:18;21.50;;;15.38;;
23119;SDS011;11729;50.836;4.330;2023-02-28T05:43:46;19.67;;;15.63;;
23119;SDS011;11729;50.836;4.330;2023-02-28T05:46:12;21.38;;;15.73;;
23119;SDS011;11729;50.836;4.330;2023-02-28T05:48:39;20.50;;;16.42;;
23119;SDS011;11729;50.836;4.330;2023-02-28T05:51:07;19.85;;;16.27;;
23119;SDS011;11729;50.836;4.330;2023-02-28T05:53:33;19.95;;;14.88;;
23119;SDS011;11729;50.836;4.330;2023-02-28T05:56:00;18.90;;;15.32;;
23119;SDS011;11729;50.836;4.330;2023-02-28T05:58:25;20.45;;;15.43;;
23119;SDS011;11729;50.836;4.330;2023-02-28T06:00:55;19.77;;;14.82;;
23119;SDS011;11729;50.836;4.330;2023-02-28T06:03:22;20.33;;;16.42;;
23119;SDS011;11729;50.836;4.330;2023-02-28T06:05:48;18.13;;;15.75;;
23119;SDS011;11729;50.836;4.330;2023-02-28T06:08:13;19.58;;;15.32;;
23119;SDS011;11729;50.836;4.330;2023-02-28T06:10:39;19.77;;;15.32;;
23119;SDS011;11729;50.836;4.330;2023-02-28T06:13:05;24.42;;;15.73;;
23119;SDS011;11729;50.836;4.330;2023-02-28T06:15:30;19.88;;;15.40;;
23119;SDS011;11729;50.836;4.330;2023-02-28T06:17:57;18.52;;;16.02;;
23119;SDS011;11729;50.836;4.330;2023-02-28T06:20:23;22.20;;;15.75;;
23119;SDS011;11729;50.836;4.330;2023-02-28T06:22:51;18.00;;;15.55;;
23119;SDS011;11729;50.836;4.330;2023-02-28T06:25:17;22.00;;;15.55;;
23119;SDS011;11729;50.836;4.330;2023-02-28T06:27:43;20.63;;;15.52;;
23119;SDS011;11729;50.836;4.330;2023-02-28T06:30:09;21.88;;;16.20;;
23119;SDS011;11729;50.836;4.330;2023-02-28T06:32:35;17.08;;;15.15;;
23119;SDS011;11729;50.836;4.330;2023-02-28T06:35:01;22.00;;;15.38;;
23119;SDS011;11729;50.836;4.330;2023-02-28T06:37:27;17.20;;;15.27;;
23119;SDS011;11729;50.836;4.330;2023-02-28T06:39:53;21.65;;;15.77;;
23119;SDS011;11729;50.836;4.330;2023-02-28T06:42:21;19.98;;;16.85;;
23119;SDS011;11729;50.836;4.330;2023-02-28T06:44:49;22.70;;;15.25;;
23119;SDS011;11729;50.836;4.330;2023-02-28T06:47:15;17.90;;;15.15;;
23119;SDS011;11729;50.836;4.330;2023-02-28T06:49:41;20.27;;;15.30;;
23119;SDS011;11729;50.836;4.330;2023-02-28T06:52:07;26.55;;;15.85;;
23119;SDS011;11729;50.836;4.330;2023-02-28T06:54:33;22.35;;;15.27;;
23119;SDS011;11729;50.836;4.330;2023-02-28T06:56:59;21.35;;;15.52;;
23119;SDS011;11729;50.836;4.330;2023-02-28T06:59:24;20.05;;;15.13;;
23119;SDS011;11729;50.836;4.330;2023-02-28T07:01:50;16.98;;;14.05;;
23119;SDS011;11729;50.836;4.330;2023-02-28T07:04:17;16.90;;;14.40;;
23119;SDS011;11729;50.836;4.330;2023-02-28T07:06:43;23.38;;;15.50;;
23119;SDS011;11729;50.836;4.330;2023-02-28T07:09:09;18.73;;;14.52;;
23119;SDS011;11729;50.836;4.330;2023-02-28T07:11:35;18.35;;;14.02;;
23119;SDS011;11729;50.836;4.330;2023-02-28T07:14:01;15.60;;;14.00;;
23119;SDS011;11729;50.836;4.330;2023-02-28T07:16:26;21.00;;;14.63;;
23119;SDS011;11729;50.836;4.330;2023-02-28T07:18:53;18.15;;;14.23;;
23119;SDS011;11729;50.836;4.330;2023-02-28T07:21:19;16.55;;;13.80;;
23119;SDS011;11729;50.836;4.330;2023-02-28T07:23:45;17.10;;;14.27;;
23119;SDS011;11729;50.836;4.330;2023-02-28T07:26:12;16.50;;;14.52;;
23119;SDS011;11729;50.836;4.330;2023-02-28T07:28:43;17.58;;;14.93;;
23119;SDS011;11729;50.836;4.330;2023-02-28T07:31:11;18.40;;;14.35;;
23119;SDS011;11729;50.836;4.330;2023-02-28T07:33:39;18.52;;;14.48;;
23119;SDS011;11729;50.836;4.330;2023-02-28T07:36:06;16.80;;;14.40;;
23119;SDS011;11729;50.836;4.330;2023-02-28T07:38:34;16.27;;;13.75;;
23119;SDS011;11729;50.836;4.330;2023-02-28T07:41:01;17.23;;;13.88;;
23119;SDS011;11729;50.836;4.330;2023-02-28T07:43:30;18.20;;;14.15;;
23119;SDS011;11729;50.836;4.330;2023-02-28T07:46:01;18.95;;;14.52;;
23119;SDS011;11729;50.836;4.330;2023-02-28T07:48:31;19.13;;;14.30;;
23119;SDS011;11729;50.836;4.330;2023-02-28T07:50:57;15.40;;;13.52;;
23119;SDS011;11729;50.836;4.330;2023-02-28T07:53:23;19.77;;;13.55;;
23119;SDS011;11729;50.836;4.330;2023-02-28T07:55:49;19.42;;;13.55;;
23119;SDS011;11729;50.836;4.330;2023-02-28T07:58:15;15.77;;;13.32;;
23119;SDS011;11729;50.836;4.330;2023-02-28T08:00:40;13.70;;;12.25;;
23119;SDS011;11729;50.836;4.330;2023-02-28T08:03:07;14.18;;;11.70;;
23119;SDS011;11729;50.836;4.330;2023-02-28T08:05:40;13.45;;;11.40;;
23119;SDS011;11729;50.836;4.330;2023-02-28T08:08:06;12.23;;;10.98;;
23119;SDS011;11729;50.836;4.330;2023-02-28T08:10:32;16.13;;;11.65;;
23119;SDS011;11729;50.836;4.330;2023-02-28T08:12:58;12.73;;;11.15;;
23119;SDS011;11729;50.836;4.330;2023-02-28T08:15:24;17.48;;;11.40;;
23119;SDS011;11729;50.836;4.330;2023-02-28T08:17:50;12.80;;;10.50;;
23119;SDS011;11729;50.836;4.330;2023-02-28T08:20:16;12.27;;;9.77;;
23119;SDS011;11729;50.836;4.330;2023-02-28T08:22:42;15.05;;;10.10;;
23119;SDS011;11729;50.836;4.330;2023-02-28T08:25:08;13.30;;;9.82;;
23119;SDS011;11729;50.836;4.330;2023-02-28T08:27:34;12.85;;;9.15;;
23119;SDS011;11729;50.836;4.330;2023-02-28T08:30:00;10.88;;;8.25;;
23119;SDS011;11729;50.836;4.330;2023-02-28T08:32:26;10.82;;;8.20;;
23119;SDS011;11729;50.836;4.330;2023-02-28T08:34:51;10.25;;;8.10;;
23119;SDS011;11729;50.836;4.330;2023-02-28T08:37:18;9.82;;;8.88;;
23119;SDS011;11729;50.836;4.330;2023-02-28T08:39:49;9.30;;;8.40;;
23119;SDS011;11729;50.836;4.330;2023-02-28T08:42:15;9.30;;;8.50;;
23119;SDS011;11729;50.836;4.330;2023-02-28T08:44:40;8.30;;;7.60;;
23119;SDS011;11729;50.836;4.330;2023-02-28T08:47:07;9.35;;;8.32;;
23119;SDS011;11729;50.836;4.330;2023-02-28T08:49:33;13.40;;;8.23;;
23119;SDS011;11729;50.836;4.330;2023-02-28T08:51:58;8.82;;;7.93;;
23119;SDS011;11729;50.836;4.330;2023-02-28T08:54:25;8.02;;;7.32;;
23119;SDS011;11729;50.836;4.330;2023-02-28T08:56:51;11.00;;;7.97;;
23119;SDS011;11729;50.836;4.330;2023-02-28T08:59:16;11.77;;;7.97;;
23119;SDS011;11729;50.836;4.330;2023-02-28T09:01:42;9.88;;;7.93;;
23119;SDS011;11729;50.836;4.330;2023-02-28T09:04:08;8.40;;;7.18;;
23119;SDS011;11729;50.836;4.330;2023-02-28T09:06:35;8.23;;;7.35;;
23119;SDS011;11729;50.836;4.330;2023-02-28T09:09:01;8.48;;;7.60;;
23119;SDS011;11729;50.836;4.330;2023-02-28T09:11:29;8.93;;;8.18;;
23119;SDS011;11729;50.836;4.330;2023-02-28T09:13:54;9.98;;;8.13;;
23119;SDS011;11729;50.836;4.330;2023-02-28T09:16:20;9.35;;;8.00;;
23119;SDS011;11729;50.836;4.330;2023-02-28T09:18:46;9.80;;;8.80;;
23119;SDS011;11729;50.836;4.330;2023-02-28T09:21:15;10.40;;;9.40;;
23119;SDS011;11729;50.836;4.330;2023-02-28T09:23:43;9.43;;;8.55;;
23119;SDS011;11729;50.836;4.330;2023-02-28T09:26:16;10.07;;;8.13;;
23119;SDS011;11729;50.836;4.330;2023-02-28T09:28:52;8.70;;;8.00;;
23119;SDS011;11729;50.836;4.330;2023-02-28T09:31:20;9.98;;;8.45;;
23119;SDS011;11729;50.836;4.330;2023-02-28T09:33:51;9.45;;;8.40;;
23119;SDS011;11729;50.836;4.330;2023-02-28T09:36:18;9.75;;;8.35;;
23119;SDS011;11729;50.836;4.330;2023-02-28T09:38:44;10.25;;;8.45;;
23119;SDS011;11729;50.836;4.330;2023-02-28T09:41:13;9.25;;;8.45;;
23119;SDS011;11729;50.836;4.330;2023-02-28T09:43:45;9.20;;;8.38;;
23119;SDS011;11729;50.836;4.330;2023-02-28T09:49:06;11.77;;;8.40;;
23119;SDS011;11729;50.836;4.330;2023-02-28T09:51:43;9.02;;;8.20;;
23119;SDS011;11729;50.836;4.330;2023-02-28T09:54:18;8.98;;;8.18;;
23119;SDS011;11729;50.836;4.330;2023-02-28T09:56:50;13.85;;;8.13;;
23119;SDS011;11729;50.836;4.330;2023-02-28T09:59:41;10.10;;;8.07;;
23119;SDS011;11729;50.836;4.330;2023-02-28T10:05:13;8.45;;;7.70;;
23119;SDS011;11729;50.836;4.330;2023-02-28T10:10:22;8.88;;;7.82;;
23119;SDS011;11729;50.836;4.330;2023-02-28T10:12:55;8.00;;;7.30;;
23119;SDS011;11729;50.836;4.330;2023-02-28T10:15:24;11.52;;;8.35;;
23119;SDS011;11729;50.836;4.330;2023-02-28T10:17:54;8.27;;;7.57;;
23119;SDS011;11729;50.836;4.330;2023-02-28T10:20:23;8.77;;;7.97;;
23119;SDS011;11729;50.836;4.330;2023-02-28T10:25:34;7.93;;;7.32;;
23119;SDS011;11729;50.836;4.330;2023-02-28T10:28:08;8.20;;;7.45;;
23119;SDS011;11729;50.836;4.330;2023-02-28T10:30:48;8.32;;;7.60;;
23119;SDS011;11729;50.836;4.330;2023-02-28T10:35:49;10.27;;;7.25;;
23119;SDS011;11729;50.836;4.330;2023-02-28T10:38:17;11.43;;;7.32;;
23119;SDS011;11729;50.836;4.330;2023-02-28T10:40:48;7.70;;;6.60;;
23119;SDS011;11729;50.836;4.330;2023-02-28T10:45:39;6.97;;;6.28;;
23119;SDS011;11729;50.836;4.330;2023-02-28T10:53:16;6.68;;;6.18;;
23119;SDS011;11729;50.836;4.330;2023-02-28T10:55:42;6.45;;;5.88;;
23119;SDS011;11729;50.836;4.330;2023-02-28T10:58:21;9.38;;;6.10;;
23119;SDS011;11729;50.836;4.330;2023-02-28T11:00:48;6.45;;;6.00;;
23119;SDS011;11729;50.836;4.330;2023-02-28T11:03:32;6.75;;;6.15;;
23119;SDS011;11729;50.836;4.330;2023-02-28T11:06:04;6.95;;;6.25;;
23119;SDS011;11729;50.836;4.330;2023-02-28T11:08:32;6.72;;;6.00;;
23119;SDS011;11729;50.836;4.330;2023-02-28T11:11:00;6.50;;;6.00;;
23119;SDS011;11729;50.836;4.330;2023-02-28T11:13:32;7.75;;;5.90;;
23119;SDS011;11729;50.836;4.330;2023-02-28T11:16:04;6.70;;;6.10;;
23119;SDS011;11729;50.836;4.330;2023-02-28T11:21:15;7.13;;;6.53;;
23119;SDS011;11729;50.836;4.330;2023-02-28T11:23:44;8.05;;;6.38;;
23119;SDS011;11729;50.836;4.330;2023-02-28T11:26:10;6.50;;;5.90;;
23119;SDS011;11729;50.836;4.330;2023-02-28T11:28:38;6.65;;;6.13;;
23119;SDS011;11729;50.836;4.330;2023-02-28T11:33:41;6.78;;;6.22;;
23119;SDS011;11729;50.836;4.330;2023-02-28T11:36:11;6.63;;;6.03;;
23119;SDS011;11729;50.836;4.330;2023-02-28T11:38:55;7.13;;;6.47;;
23119;SDS011;11729;50.836;4.330;2023-02-28T11:46:40;6.75;;;6.25;;
23119;SDS011;11729;50.836;4.330;2023-02-28T11:51:53;7.65;;;6.88;;
23119;SDS011;11729;50.836;4.330;2023-02-28T12:05:51;7.82;;;6.85;;
23119;SDS011;11729;50.836;4.330;2023-02-28T12:13:48;6.97;;;6.38;;
23119;SDS011;11729;50.836;4.330;2023-02-28T12:16:43;7.47;;;6.78;;
23119;SDS011;11729;50.836;4.330;2023-02-28T12:28:01;7.00;;;6.30;;
23119;SDS011;11729;50.836;4.330;2023-02-28T12:30:28;6.38;;;5.88;;
23119;SDS011;11729;50.836;4.330;2023-02-28T12:33:09;10.18;;;6.00;;
23119;SDS011;11729;50.836;4.330;2023-02-28T12:35:44;6.60;;;6.00;;
23119;SDS011;11729;50.836;4.330;2023-02-28T12:38:39;7.30;;;6.20;;
23119;SDS011;11729;50.836;4.330;2023-02-28T12:41:12;6.97;;;6.28;;
23119;SDS011;11729;50.836;4.330;2023-02-28T12:43:42;7.28;;;6.45;;
23119;SDS011;11729;50.836;4.330;2023-02-28T12:46:24;9.82;;;6.38;;
23119;SDS011;11729;50.836;4.330;2023-02-28T12:49:13;8.32;;;5.95;;
23119;SDS011;11729;50.836;4.330;2023-02-28T12:51:42;6.90;;;6.40;;
23119;SDS011;11729;50.836;4.330;2023-02-28T12:54:14;7.38;;;6.60;;
23119;SDS011;11729;50.836;4.330;2023-02-28T12:56:48;7.28;;;6.60;;
23119;SDS011;11729;50.836;4.330;2023-02-28T13:10:02;8.40;;;6.13;;
23119;SDS011;11729;50.836;4.330;2023-02-28T13:12:31;6.85;;;6.15;;
23119;SDS011;11729;50.836;4.330;2023-02-28T13:15:39;6.85;;;6.22;;
23119;SDS011;11729;50.836;4.330;2023-02-28T13:17:55;6.93;;;6.32;;
23119;SDS011;11729;50.836;4.330;2023-02-28T13:20:23;6.50;;;6.07;;
23119;SDS011;11729;50.836;4.330;2023-02-28T13:22:51;7.05;;;6.35;;
23119;SDS011;11729;50.836;4.330;2023-02-28T13:27:54;6.07;;;5.63;;
23119;SDS011;11729;50.836;4.330;2023-02-28T13:38:44;6.93;;;6.30;;
23119;SDS011;11729;50.836;4.330;2023-02-28T13:44:21;6.63;;;5.75;;
23119;SDS011;11729;50.836;4.330;2023-02-28T13:51:52;6.82;;;6.22;;
23119;SDS011;11729;50.836;4.330;2023-02-28T13:54:38;6.90;;;6.30;;
23119;SDS011;11729;50.836;4.330;2023-02-28T14:00:13;7.05;;;6.20;;
23119;SDS011;11729;50.836;4.330;2023-02-28T14:05:32;7.00;;;6.40;;
23119;SDS011;11729;50.836;4.330;2023-02-28T14:08:01;7.88;;;6.50;;
23119;SDS011;11729;50.836;4.330;2023-02-28T14:10:34;7.35;;;6.65;;
23119;SDS011;11729;50.836;4.330;2023-02-28T14:15:57;9.23;;;6.50;;
23119;SDS011;11729;50.836;4.330;2023-02-28T14:18:31;6.85;;;6.22;;
23119;SDS011;11729;50.836;4.330;2023-02-28T14:21:14;9.13;;;6.80;;
23119;SDS011;11729;50.836;4.330;2023-02-28T14:37:29;9.73;;;6.57;;
23119;SDS011;11729;50.836;4.330;2023-02-28T14:40:01;7.40;;;6.70;;
23119;SDS011;11729;50.836;4.330;2023-02-28T14:42:30;7.60;;;6.90;;
23119;SDS011;11729;50.836;4.330;2023-02-28T14:45:01;7.75;;;6.90;;
23119;SDS011;11729;50.836;4.330;2023-02-28T14:47:28;9.70;;;7.20;;
23119;SDS011;11729;50.836;4.330;2023-02-28T14:49:58;9.13;;;7.10;;
23119;SDS011;11729;50.836;4.330;2023-02-28T14:52:26;8.27;;;7.47;;
23119;SDS011;11729;50.836;4.330;2023-02-28T14:54:58;9.38;;;7.68;;
23119;SDS011;11729;50.836;4.330;2023-02-28T14:57:28;7.88;;;7.05;;
23119;SDS011;11729;50.836;4.330;2023-02-28T15:02:51;7.72;;;7.00;;
23119;SDS011;11729;50.836;4.330;2023-02-28T15:05:26;8.68;;;7.93;;
23119;SDS011;11729;50.836;4.330;2023-02-28T15:08:15;9.85;;;8.43;;
23119;SDS011;11729;50.836;4.330;2023-02-28T15:11:23;8.77;;;7.93;;
23119;SDS011;11729;50.836;4.330;2023-02-28T15:13:35;8.27;;;7.57;;
23119;SDS011;11729;50.836;4.330;2023-02-28T15:16:12;8.00;;;7.32;;
23119;SDS011;11729;50.836;4.330;2023-02-28T15:21:10;8.60;;;7.55;;
23119;SDS011;11729;50.836;4.330;2023-02-28T15:23:38;8.18;;;7.45;;
23119;SDS011;11729;50.836;4.330;2023-02-28T15:26:07;8.48;;;7.63;;
23119;SDS011;11729;50.836;4.330;2023-02-28T15:31:03;8.18;;;7.57;;
23119;SDS011;11729;50.836;4.330;2023-02-28T15:33:51;8.75;;;7.85;;
23119;SDS011;11729;50.836;4.330;2023-02-28T15:36:19;8.88;;;8.18;;
23119;SDS011;11729;50.836;4.330;2023-02-28T15:38:51;8.80;;;8.00;;
23119;SDS011;11729;50.836;4.330;2023-02-28T15:41:25;9.05;;;8.35;;
23119;SDS011;11729;50.836;4.330;2023-02-28T15:44:14;9.38;;;8.52;;
23119;SDS011;11729;50.836;4.330;2023-02-28T15:49:26;9.27;;;8.38;;
23119;SDS011;11729;50.836;4.330;2023-02-28T15:51:53;9.02;;;8.18;;
23119;SDS011;11729;50.836;4.330;2023-02-28T15:54:24;8.98;;;8.15;;
23119;SDS011;11729;50.836;4.330;2023-02-28T15:56:57;9.10;;;8.20;;
23119;SDS011;11729;50.836;4.330;2023-02-28T15:59:35;9.13;;;8.40;;
23119;SDS011;11729;50.836;4.330;2023-02-28T16:02:29;9.07;;;8.38;;
23119;SDS011;11729;50.836;4.330;2023-02-28T16:04:56;8.98;;;8.38;;
23119;SDS011;11729;50.836;4.330;2023-02-28T16:07:35;9.55;;;8.75;;
23119;SDS011;11729;50.836;4.330;2023-02-28T16:10:03;9.25;;;8.55;;
23119;SDS011;11729;50.836;4.330;2023-02-28T16:12:31;9.68;;;8.88;;
23119;SDS011;11729;50.836;4.330;2023-02-28T16:15:00;9.88;;;9.07;;
23119;SDS011;11729;50.836;4.330;2023-02-28T16:17:33;9.90;;;8.90;;
23119;SDS011;11729;50.836;4.330;2023-02-28T16:20:05;9.43;;;8.52;;
23119;SDS011;11729;50.836;4.330;2023-02-28T16:22:37;9.07;;;8.27;;
23119;SDS011;11729;50.836;4.330;2023-02-28T16:25:05;9.40;;;8.23;;
23119;SDS011;11729;50.836;4.330;2023-02-28T16:27:34;9.13;;;8.32;;
23119;SDS011;11729;50.836;4.330;2023-02-28T16:30:02;9.55;;;8.77;;
23119;SDS011;11729;50.836;4.330;2023-02-28T16:32:29;9.00;;;8.30;;
23119;SDS011;11729;50.836;4.330;2023-02-28T16:34:56;8.82;;;8.02;;
23119;SDS011;11729;50.836;4.330;2023-02-28T16:37:23;9.68;;;8.63;;
23119;SDS011;11729;50.836;4.330;2023-02-28T16:39:49;9.05;;;8.25;;
23119;SDS011;11729;50.836;4.330;2023-02-28T16:42:18;10.27;;;8.65;;
23119;SDS011;11729;50.836;4.330;2023-02-28T16:44:49;8.93;;;8.13;;
23119;SDS011;11729;50.836;4.330;2023-02-28T16:47:15;8.40;;;7.78;;
23119;SDS011;11729;50.836;4.330;2023-02-28T16:49:41;10.93;;;7.88;;
23119;SDS011;11729;50.836;4.330;2023-02-28T16:52:08;8.82;;;8.20;;
23119;SDS011;11729;50.836;4.330;2023-02-28T16:54:35;9.23;;;8.40;;
23119;SDS011;11729;50.836;4.330;2023-02-28T16:57:00;9.23;;;8.25;;
23119;SDS011;11729;50.836;4.330;2023-02-28T16:59:27;8.88;;;8.10;;
23119;SDS011;11729;50.836;4.330;2023-02-28T17:01:54;9.45;;;8.10;;
23119;SDS011;11729;50.836;4.330;2023-02-28T17:04:22;9.30;;;7.97;;
23119;SDS011;11729;50.836;4.330;2023-02-28T17:06:49;11.90;;;8.00;;
23119;SDS011;11729;50.836;4.330;2023-02-28T17:09:20;8.50;;;7.80;;
23119;SDS011;11729;50.836;4.330;2023-02-28T17:11:46;8.38;;;7.57;;
23119;SDS011;11729;50.836;4.330;2023-02-28T17:14:12;9.13;;;8.18;;
23119;SDS011;11729;50.836;4.330;2023-02-28T17:16:39;8.75;;;7.60;;
23119;SDS011;11729;50.836;4.330;2023-02-28T17:19:05;9.32;;;8.38;;
23119;SDS011;11729;50.836;4.330;2023-02-28T17:21:36;8.60;;;7.70;;
23119;SDS011;11729;50.836;4.330;2023-02-28T17:24:02;8.75;;;7.85;;